ES-0230 weather

Sotillo de la Andrada
Castilla y León, Spain

Public forecast

Using degrees Celsius for public forecast. Weather courtesy of forecast.io.

Closest aviation weather report (METAR) to Sotillo de la Andrada

Closest report is Torrejón Airport, 47.2 nm (87.5 km) S. Retrieved 2019/10/22 07:00 UTC (56 minutes ago):

LETO 220700Z 04007KT CAVOK 08/06 Q1015 NOSIG

Closest aviation forecast (TAF) to Sotillo de la Andrada

Closest forecast is Torrejón Airport, 47.2 nm (87.5 km) S. Retrieved 2019/10/22 06:27 UTC (1 hour ago):

TAF LETO 220500Z 2206/2306 01010KT 9999 FEW040 TX15/2215Z TN06/2206Z PROB30 TEMPO 2212/2217 02015G25KT PROB40 TEMPO 2213/2306 3000 RA SHRA BKN030TCU BECMG 2217/2219 VRB04KT PROB40 TEMPO 2304/2306 2000 BR BKN010